createdAt,value
2023-05-05T00:00:46.905Z,49.95
2023-05-05T00:04:58.850Z,49.78
2023-05-05T00:09:10.501Z,50.23
2023-05-05T00:13:22.925Z,50.50
2023-05-05T00:17:34.736Z,50.45
2023-05-05T00:21:46.492Z,51.61
2023-05-05T00:25:58.239Z,51.66
2023-05-05T00:30:10.769Z,51.89
2023-05-05T00:34:22.679Z,52.16
2023-05-05T00:38:34.404Z,52.03
2023-05-05T00:42:50.690Z,52.58
2023-05-05T00:47:02.567Z,53.26
2023-05-05T00:51:16.735Z,53.18
2023-05-05T00:55:29.521Z,53.62
2023-05-05T00:59:41.917Z,53.81
2023-05-05T01:03:57.416Z,54.25
2023-05-05T01:08:26.724Z,54.55
2023-05-05T01:12:51.659Z,55.11
2023-05-05T01:17:14.862Z,55.34
2023-05-05T01:21:32.773Z,55.69
2023-05-05T01:26:05.751Z,55.74
2023-05-05T01:30:42.712Z,56.46
2023-05-05T01:35:03.244Z,57.40
2023-05-05T01:39:19.642Z,58.34
2023-05-05T01:43:35.776Z,58.82
2023-05-05T01:47:54.278Z,59.62
2023-05-05T01:52:10.419Z,60.00
2023-05-05T01:56:24.942Z,60.62
2023-05-05T02:00:37.257Z,60.55
2023-05-05T02:04:51.206Z,61.31
2023-05-05T02:09:04.178Z,61.86
2023-05-05T02:13:17.180Z,62.37
2023-05-05T02:17:30.511Z,62.58
2023-05-05T02:21:42.538Z,63.06
2023-05-05T02:25:59.709Z,62.88
2023-05-05T02:30:15.932Z,63.23
2023-05-05T02:34:29.384Z,63.01
2023-05-05T02:38:45.088Z,63.86
2023-05-05T02:42:59.881Z,64.39
2023-05-05T02:47:15.285Z,64.10
2023-05-05T02:51:27.663Z,64.40
2023-05-05T02:55:52.992Z,64.77
2023-05-05T03:00:38.502Z,64.53
2023-05-05T03:04:56.701Z,64.80
2023-05-05T03:09:21.262Z,64.86
2023-05-05T03:13:40.180Z,65.00
2023-05-05T03:17:53.825Z,65.33
2023-05-05T03:22:06.267Z,65.83
2023-05-05T03:26:19.130Z,66.11
2023-05-05T03:30:31.964Z,66.50
2023-05-05T03:34:43.838Z,66.86
2023-05-05T03:38:55.928Z,67.47
2023-05-05T03:43:08.091Z,67.98
2023-05-05T03:47:20.067Z,68.18
2023-05-05T03:51:32.240Z,68.83
2023-05-05T03:55:44.898Z,69.16
2023-05-05T03:59:56.792Z,69.56
2023-05-05T04:04:09.560Z,69.39
2023-05-05T04:08:21.596Z,69.61
2023-05-05T04:12:33.514Z,70.09
2023-05-05T04:16:45.342Z,70.29
2023-05-05T04:20:57.154Z,70.58
2023-05-05T04:25:09.635Z,70.61
2023-05-05T04:29:21.746Z,70.59
2023-05-05T04:33:33.638Z,70.65
2023-05-05T04:37:45.606Z,70.99
2023-05-05T04:41:57.889Z,71.10
2023-05-05T04:46:09.972Z,71.51
2023-05-05T04:50:22.585Z,71.83
2023-05-05T04:54:37.468Z,72.33
2023-05-05T04:58:50.014Z,72.24
2023-05-05T05:03:02.440Z,69.91
2023-05-05T05:07:15.033Z,67.49
2023-05-05T05:11:27.157Z,65.28
2023-05-05T05:15:39.001Z,62.67
2023-05-05T05:19:50.737Z,60.24
2023-05-05T05:24:02.245Z,58.48
2023-05-05T05:28:14.214Z,56.11
2023-05-05T05:32:34.061Z,54.91
2023-05-05T05:36:46.387Z,52.91
2023-05-05T05:40:58.070Z,51.57
2023-05-05T05:45:10.235Z,49.16
2023-05-05T05:49:22.632Z,49.26
2023-05-05T05:53:34.408Z,48.56
2023-05-05T05:57:46.031Z,47.59
2023-05-05T06:01:58.748Z,45.85
2023-05-05T06:06:10.687Z,44.92
2023-05-05T06:10:28.093Z,43.29
2023-05-05T06:14:46.461Z,42.21
2023-05-05T06:18:58.139Z,41.35
2023-05-05T06:23:09.778Z,40.93
2023-05-05T06:27:25.907Z,40.16
2023-05-05T06:31:37.836Z,39.10
2023-05-05T06:35:51.901Z,38.62
2023-05-05T06:40:03.749Z,38.29
2023-05-05T06:44:15.298Z,37.88
2023-05-05T06:48:27.003Z,36.24
2023-05-05T06:52:38.626Z,36.08
2023-05-05T06:56:50.279Z,35.06
2023-05-05T07:01:02.085Z,35.15
2023-05-05T07:05:13.721Z,34.70
2023-05-05T07:09:25.298Z,34.42
2023-05-05T07:13:36.865Z,34.38
2023-05-05T07:17:48.680Z,34.61
2023-05-05T07:22:00.208Z,35.45
2023-05-05T07:26:12.167Z,34.97
2023-05-05T07:30:25.873Z,33.91
2023-05-05T07:34:38.217Z,33.36
2023-05-05T07:38:49.854Z,32.74
2023-05-05T07:43:01.538Z,32.06
2023-05-05T07:47:13.161Z,31.53
2023-05-05T07:51:25.051Z,31.01
2023-05-05T07:55:36.701Z,30.67
2023-05-05T07:59:48.347Z,30.33
2023-05-05T08:03:59.980Z,29.79
2023-05-05T08:08:11.580Z,29.02
2023-05-05T08:12:23.117Z,28.21
2023-05-05T08:16:34.898Z,28.78
2023-05-05T08:20:46.819Z,28.69
2023-05-05T08:24:58.745Z,28.04
2023-05-05T08:29:10.279Z,27.73
2023-05-05T08:33:21.853Z,27.77
2023-05-05T08:37:34.711Z,27.22
2023-05-05T08:41:46.368Z,27.33
2023-05-05T08:45:58.857Z,27.18
2023-05-05T08:50:11.322Z,26.83
2023-05-05T08:54:27.159Z,26.36
2023-05-05T08:58:38.833Z,25.37
2023-05-05T09:02:50.705Z,25.91
2023-05-05T09:07:02.944Z,26.30
2023-05-05T09:11:14.537Z,26.91
2023-05-05T09:15:28.232Z,27.42
2023-05-05T09:20:08.738Z,28.83
2023-05-05T09:24:20.253Z,29.70
2023-05-05T09:28:32.373Z,30.54
2023-05-05T09:32:52.329Z,31.64
2023-05-05T09:37:04.126Z,32.15
2023-05-05T09:41:23.489Z,32.66
2023-05-05T09:45:35.099Z,32.49
2023-05-05T09:49:58.562Z,32.45
2023-05-05T09:54:30.262Z,33.36
2023-05-05T09:58:42.235Z,33.04
2023-05-05T10:03:02.548Z,33.24
2023-05-05T10:07:24.165Z,34.18
2023-05-05T10:11:36.346Z,33.87
2023-05-05T10:15:51.366Z,33.53
2023-05-05T10:20:03.938Z,34.42
2023-05-05T10:24:24.116Z,34.78
2023-05-05T10:28:48.658Z,35.19
2023-05-05T10:33:30.842Z,35.81
2023-05-05T10:37:44.710Z,36.12
2023-05-05T10:42:01.793Z,36.25
2023-05-05T10:46:13.593Z,35.78
2023-05-05T10:50:38.460Z,35.90
2023-05-05T10:55:13.874Z,36.08
2023-05-05T10:59:37.768Z,36.71
2023-05-05T11:03:49.704Z,37.22
2023-05-05T11:08:30.689Z,37.70
2023-05-05T11:12:57.939Z,37.53
2023-05-05T11:17:47.930Z,38.08
2023-05-05T11:22:01.729Z,39.09
2023-05-05T11:26:14.350Z,42.27
2023-05-05T11:30:26.131Z,44.44
2023-05-05T11:34:48.642Z,47.28
2023-05-05T11:39:45.425Z,47.42
2023-05-05T11:44:10.440Z,49.07
2023-05-05T11:48:27.101Z,52.62
2023-05-05T11:52:38.825Z,55.58
2023-05-05T11:56:54.367Z,58.87
2023-05-05T12:01:09.375Z,61.04
2023-05-05T12:05:21.339Z,62.96
2023-05-05T12:09:32.966Z,64.12
2023-05-05T12:13:44.642Z,64.63
2023-05-05T12:17:56.432Z,65.09
2023-05-05T12:22:08.086Z,65.01
2023-05-05T12:26:30.050Z,65.76
2023-05-05T12:30:41.653Z,65.67
2023-05-05T12:34:55.256Z,65.55
2023-05-05T12:39:07.044Z,65.09
2023-05-05T12:43:35.130Z,64.93
2023-05-05T12:47:46.785Z,64.28
2023-05-05T12:51:58.512Z,64.40
2023-05-05T12:56:40.551Z,63.84
2023-05-05T13:01:11.282Z,63.51
2023-05-05T13:05:31.515Z,63.63
2023-05-05T13:09:43.371Z,63.64
2023-05-05T13:13:55.049Z,64.10
2023-05-05T13:18:06.651Z,64.21
2023-05-05T13:22:18.376Z,64.39
2023-05-05T13:26:30.030Z,64.65
2023-05-05T13:30:41.886Z,65.40
2023-05-05T13:34:53.562Z,65.34
2023-05-05T13:39:05.309Z,65.63
2023-05-05T13:43:16.970Z,65.92
2023-05-05T13:47:29.297Z,65.96
2023-05-05T13:51:41.035Z,66.12
2023-05-05T13:55:52.684Z,66.23
2023-05-05T14:00:04.790Z,66.62
2023-05-05T14:04:19.171Z,66.66
2023-05-05T14:08:30.769Z,66.47
2023-05-05T14:12:42.344Z,66.31
2023-05-05T14:16:54.115Z,66.54
2023-05-05T14:21:05.874Z,66.70
2023-05-05T14:25:17.620Z,66.92
2023-05-05T14:29:29.268Z,66.88
2023-05-05T14:33:40.894Z,66.89
2023-05-05T14:37:52.471Z,67.06
2023-05-05T14:42:04.351Z,67.15
2023-05-05T14:46:16.162Z,66.54
2023-05-05T14:50:27.818Z,66.59
2023-05-05T14:54:39.530Z,66.26
2023-05-05T14:58:51.332Z,65.60
2023-05-05T15:03:03.116Z,65.87
2023-05-05T15:07:14.878Z,65.17
2023-05-05T15:11:26.651Z,64.40
2023-05-05T15:15:38.390Z,64.05
2023-05-05T15:19:50.161Z,63.33
2023-05-05T15:24:02.041Z,62.86
2023-05-05T15:28:13.783Z,62.63
2023-05-05T15:32:25.706Z,62.71
2023-05-05T15:36:37.453Z,63.23
2023-05-05T15:40:50.257Z,63.15
2023-05-05T15:45:02.087Z,63.02
2023-05-05T15:49:13.690Z,62.58
2023-05-05T15:53:26.728Z,62.02
2023-05-05T15:57:41.433Z,62.94
2023-05-05T16:01:53.173Z,63.26
2023-05-05T16:06:04.924Z,63.58
2023-05-05T16:10:18.595Z,63.59
2023-05-05T16:14:34.084Z,63.15
2023-05-05T16:18:45.776Z,62.83
2023-05-05T16:22:57.576Z,62.62
2023-05-05T16:27:09.268Z,62.76
2023-05-05T16:31:21.107Z,62.81
2023-05-05T16:35:32.854Z,62.55
2023-05-05T16:39:44.679Z,62.11
2023-05-05T16:43:56.373Z,61.11
2023-05-05T16:48:09.201Z,61.09
2023-05-05T16:52:20.943Z,61.04
2023-05-05T16:56:32.514Z,59.33
2023-05-05T17:00:46.719Z,58.65
2023-05-05T17:04:58.403Z,58.40
2023-05-05T17:09:10.012Z,58.46
2023-05-05T17:13:22.996Z,58.25
2023-05-05T17:17:34.889Z,58.07
2023-05-05T17:21:46.480Z,58.15
2023-05-05T17:26:00.899Z,58.61
2023-05-05T17:30:12.855Z,59.82
2023-05-05T17:34:24.423Z,60.24
2023-05-05T17:38:35.946Z,60.23
2023-05-05T17:42:47.620Z,61.21
2023-05-05T17:46:59.355Z,61.13
2023-05-05T17:51:11.450Z,62.07
2023-05-05T17:55:23.155Z,62.92
2023-05-05T17:59:35.282Z,62.92
2023-05-05T18:03:47.009Z,62.61
2023-05-05T18:07:58.575Z,62.67
2023-05-05T18:12:13.356Z,63.49
2023-05-05T18:16:27.363Z,64.49
2023-05-05T18:20:41.742Z,64.90
2023-05-05T18:29:53.931Z,65.42
2023-05-05T18:34:05.894Z,66.05
2023-05-05T18:39:20.215Z,66.67
2023-05-05T18:43:34.921Z,66.86
2023-05-05T18:47:46.863Z,66.96
2023-05-05T19:19:26.882Z,68.47
2023-05-05T19:23:40.905Z,68.80
2023-05-05T19:46:39.512Z,70.72
2023-05-05T19:50:51.304Z,70.86
2023-05-05T20:36:24.931Z,74.12
2023-05-05T20:59:29.737Z,75.45
2023-05-05T21:04:54.763Z,75.80
2023-05-05T21:10:22.869Z,76.07
2023-05-05T21:15:22.807Z,76.06
2023-05-05T21:26:22.130Z,76.53
2023-05-05T21:30:59.444Z,76.80
2023-05-05T21:35:28.415Z,77.25
2023-05-05T21:40:38.649Z,77.19
2023-05-05T21:46:33.879Z,77.74
2023-05-05T21:57:27.506Z,77.92
2023-05-05T22:02:23.432Z,78.31
2023-05-05T22:13:00.218Z,78.71
2023-05-05T22:18:19.416Z,78.85
2023-05-05T22:23:24.759Z,79.15
2023-05-05T22:38:11.997Z,79.51
2023-05-05T22:42:49.930Z,79.65
2023-05-05T22:53:01.860Z,79.88
2023-05-05T22:57:51.346Z,79.69
2023-05-05T23:02:34.535Z,79.90
2023-05-05T23:07:40.114Z,80.00
2023-05-05T23:12:06.558Z,79.61
2023-05-05T23:21:24.153Z,80.36
2023-05-05T23:25:52.560Z,80.54
2023-05-05T23:30:26.622Z,80.63
2023-05-05T23:50:36.076Z,81.26
2023-05-05T23:55:25.792Z,81.46
2023-05-05T23:59:43.472Z,81.59
